Time;durP1;ratioP1;P1;durP2;ratioP2;P2;SDS_P1;SDS_P2;PMS_P1;PMS_P2;Temp;Humidity;BMP_temperature;BMP_pressure;BME280_temperature;BME280_humidity;BME280_pressure;Samples;Min_cycle;Max_cycle;Signal;HPM_P1;HPM_P2
2023/12/31 00:02:00;;;;;;;1.10;1.00;;;11.70;73.70;;;;;;5054479;28;20116;-56
2023/12/31 00:04:26;;;;;;;1.20;0.95;;;11.60;73.80;;;;;;5060511;28;20095;-53
2023/12/31 00:06:55;;;;;;;0.82;0.70;;;11.60;73.90;;;;;;5060774;28;20072;-59
2023/12/31 00:09:22;;;;;;;0.77;0.52;;;11.60;73.80;;;;;;5054483;28;20124;-55
2023/12/31 00:11:51;;;;;;;1.52;0.77;;;11.60;73.90;;;;;;5061794;28;20051;-56
2023/12/31 00:14:19;;;;;;;0.95;0.80;;;11.60;74.10;;;;;;5058835;28;20043;-56
2023/12/31 00:16:51;;;;;;;1.17;0.45;;;11.60;74.30;;;;;;5057121;28;20094;-56
2023/12/31 00:19:20;;;;;;;0.90;0.60;;;11.50;74.40;;;;;;5056943;28;20582;-57
2023/12/31 00:21:52;;;;;;;1.52;0.70;;;11.60;74.40;;;;;;5056407;28;20108;-56
2023/12/31 00:24:18;;;;;;;2.05;0.68;;;11.60;74.40;;;;;;5054566;28;20103;-58
2023/12/31 00:26:49;;;;;;;1.45;0.68;;;11.50;74.30;;;;;;5044553;28;20109;-57
2023/12/31 00:29:19;;;;;;;0.98;0.60;;;11.50;74.20;;;;;;5057424;28;20071;-60
2023/12/31 00:31:50;;;;;;;2.60;0.70;;;11.50;74.30;;;;;;5052971;28;20076;-55
2023/12/31 00:34:16;;;;;;;0.52;0.50;;;11.50;74.30;;;;;;5045534;28;20714;-54
2023/12/31 00:36:43;;;;;;;1.35;0.70;;;11.50;74.50;;;;;;5059898;28;20412;-55
2023/12/31 00:39:16;;;;;;;1.98;0.82;;;11.50;74.60;;;;;;5035621;28;20570;-54
2023/12/31 00:41:42;;;;;;;1.75;0.90;;;11.60;74.80;;;;;;5050896;28;20040;-56
2023/12/31 00:44:09;;;;;;;1.85;0.70;;;11.60;74.80;;;;;;5052929;28;20037;-58
2023/12/31 00:46:36;;;;;;;1.10;1.00;;;11.60;74.80;;;;;;5057754;28;20107;-55
2023/12/31 00:49:03;;;;;;;0.70;0.70;;;11.60;74.70;;;;;;5057333;28;20115;-56
2023/12/31 00:51:30;;;;;;;1.90;0.80;;;11.70;74.60;;;;;;5053437;23;20041;-58
2023/12/31 00:54:02;;;;;;;1.73;0.88;;;11.80;74.60;;;;;;5051221;28;20037;-58
2023/12/31 00:56:30;;;;;;;0.88;0.80;;;11.80;74.30;;;;;;5040706;28;20048;-59
2023/12/31 00:58:59;;;;;;;3.30;1.02;;;11.80;74.10;;;;;;5049085;28;20072;-59
2023/12/31 01:01:31;;;;;;;0.80;0.80;;;11.90;73.80;;;;;;5037588;28;20048;-58
2023/12/31 01:03:57;;;;;;;1.05;0.95;;;11.90;73.50;;;;;;5058800;28;20072;-59
2023/12/31 01:06:24;;;;;;;1.00;0.80;;;12.00;73.30;;;;;;5053411;28;20075;-59
2023/12/31 01:08:57;;;;;;;1.08;0.80;;;12.00;72.90;;;;;;5056199;28;20062;-58
2023/12/31 01:11:25;;;;;;;2.78;0.95;;;12.10;72.30;;;;;;5056445;28;20128;-59
2023/12/31 01:13:51;;;;;;;1.60;1.13;;;12.10;72.10;;;;;;5040793;28;20094;-59
2023/12/31 01:16:20;;;;;;;1.13;1.00;;;12.10;71.80;;;;;;5050619;28;20039;-59
2023/12/31 01:18:50;;;;;;;2.75;1.00;;;12.10;71.40;;;;;;5058810;28;20037;-58
2023/12/31 01:21:48;;;;;;;1.67;1.00;;;12.20;71.20;;;;;;5048424;28;20049;-59
2023/12/31 01:24:35;;;;;;;1.25;0.90;;;12.10;71.00;;;;;;5033492;28;20041;-59
2023/12/31 01:27:21;;;;;;;1.27;0.70;;;12.10;70.80;;;;;;5051084;28;20044;-59
2023/12/31 01:30:01;;;;;;;1.35;0.80;;;12.10;70.50;;;;;;5052846;28;20044;-59
2023/12/31 01:32:50;;;;;;;0.50;0.50;;;12.10;70.40;;;;;;5034015;28;20560;-59
2023/12/31 01:35:31;;;;;;;1.35;0.75;;;12.10;70.20;;;;;;5048268;28;20049;-58
2023/12/31 01:38:16;;;;;;;0.95;0.90;;;12.00;69.90;;;;;;5055664;28;20045;-59
2023/12/31 01:41:18;;;;;;;2.15;0.70;;;12.00;70.00;;;;;;5047817;28;20043;-59
2023/12/31 01:44:28;;;;;;;1.50;0.77;;;12.00;70.00;;;;;;5050693;28;20731;-59
2023/12/31 01:47:14;;;;;;;;;;;;;;;;;;;;;
2023/12/31 01:50:25;;;;;;;1.05;0.90;;;11.90;70.10;;;;;;5045296;28;20072;-59
2023/12/31 01:53:12;;;;;;;1.02;0.95;;;11.90;70.10;;;;;;5027448;28;20403;-59
2023/12/31 01:55:42;;;;;;;1.05;0.70;;;11.90;70.30;;;;;;5053779;28;20415;-58
2023/12/31 01:58:49;;;;;;;2.08;0.90;;;11.80;70.20;;;;;;5023272;28;20041;-59
2023/12/31 02:01:30;;;;;;;1.70;0.75;;;11.80;70.00;;;;;;5031059;28;20037;-59
2023/12/31 02:04:13;;;;;;;0.85;0.70;;;11.80;70.40;;;;;;5037518;28;20045;-58
2023/12/31 02:06:55;;;;;;;0.90;0.90;;;11.80;70.40;;;;;;5038896;28;20052;-59
2023/12/31 02:09:32;;;;;;;1.33;0.88;;;11.70;70.30;;;;;;5048811;28;20045;-59
2023/12/31 02:12:15;;;;;;;4.88;1.42;;;11.70;70.00;;;;;;5046038;28;20048;-58
2023/12/31 02:15:08;;;;;;;1.20;0.98;;;11.70;70.40;;;;;;5036367;28;20494;-59
2023/12/31 02:17:44;;;;;;;1.63;0.90;;;11.70;70.50;;;;;;5033389;28;20529;-58
2023/12/31 02:20:47;;;;;;;1.13;0.82;;;11.70;70.50;;;;;;5023096;28;20504;-58
2023/12/31 02:23:31;;;;;;;1.90;0.85;;;11.70;70.40;;;;;;5044951;28;20696;-59
2023/12/31 02:26:19;;;;;;;1.25;0.70;;;11.70;70.70;;;;;;5053362;28;20041;-57
2023/12/31 02:29:16;;;;;;;2.67;0.73;;;11.70;70.40;;;;;;5032104;28;20091;-59
2023/12/31 02:32:05;;;;;;;3.80;0.65;;;11.70;70.10;;;;;;5040496;28;20037;-58
2023/12/31 02:34:51;;;;;;;0.98;0.90;;;11.60;70.20;;;;;;5044137;28;20427;-59
2023/12/31 02:37:47;;;;;;;1.85;0.63;;;11.70;70.40;;;;;;5058691;28;20452;-59
2023/12/31 02:40:21;;;;;;;1.20;0.85;;;11.60;70.40;;;;;;5052012;28;20041;-58
2023/12/31 02:43:22;;;;;;;1.33;0.82;;;11.60;70.30;;;;;;5048727;28;20037;-58
2023/12/31 02:46:15;;;;;;;0.85;0.77;;;11.60;70.30;;;;;;5049716;28;20045;-59
2023/12/31 02:48:58;;;;;;;1.40;1.02;;;11.60;70.40;;;;;;5058345;28;21028;-59
2023/12/31 02:52:09;;;;;;;2.25;1.10;;;11.60;70.30;;;;;;5049741;28;20041;-58
2023/12/31 02:54:52;;;;;;;0.95;0.57;;;11.60;70.30;;;;;;5055797;28;20032;-59
2023/12/31 02:57:42;;;;;;;2.45;0.70;;;11.60;70.60;;;;;;5048344;28;20080;-58
2023/12/31 03:00:24;;;;;;;1.67;0.90;;;11.60;70.40;;;;;;5033361;28;20041;-60
2023/12/31 03:03:00;;;;;;;1.80;1.05;;;11.60;70.40;;;;;;5037812;28;20032;-59
2023/12/31 03:05:35;;;;;;;2.00;1.05;;;11.60;70.50;;;;;;5037578;28;20132;-58
2023/12/31 03:08:19;;;;;;;0.77;0.73;;;11.60;70.50;;;;;;5027526;28;20053;-59
2023/12/31 03:11:00;;;;;;;2.15;0.73;;;11.50;70.40;;;;;;5053860;28;20051;-59
2023/12/31 03:13:33;;;;;;;1.45;0.77;;;11.60;70.50;;;;;;5055843;28;20045;-59
2023/12/31 03:16:12;;;;;;;2.60;1.25;;;11.50;70.50;;;;;;5031868;28;20045;-59
2023/12/31 03:19:04;;;;;;;1.45;0.82;;;11.60;70.60;;;;;;5031461;28;20049;-58
2023/12/31 03:21:34;;;;;;;1.13;0.85;;;11.60;70.30;;;;;;5035768;28;20485;-59
2023/12/31 03:24:10;;;;;;;1.83;0.80;;;11.50;70.60;;;;;;5051387;28;20099;-59
2023/12/31 03:26:49;;;;;;;1.25;0.73;;;11.50;70.60;;;;;;5054921;28;20052;-59
2023/12/31 03:29:38;;;;;;;1.25;0.82;;;11.50;70.60;;;;;;5051208;28;20151;-59
2023/12/31 03:32:34;;;;;;;0.98;0.80;;;11.50;70.70;;;;;;5022170;28;20507;-59
2023/12/31 03:35:19;;;;;;;2.33;1.05;;;11.60;70.50;;;;;;5024315;28;20045;-59
2023/12/31 03:37:53;;;;;;;1.00;0.73;;;11.60;70.70;;;;;;5051517;28;20511;-59
2023/12/31 03:40:41;;;;;;;;;;;;;;;;;;;;;
2023/12/31 03:43:22;;;;;;;1.88;1.45;;;11.60;70.80;;;;;;5028340;28;20128;-59
2023/12/31 03:45:59;;;;;;;1.67;1.17;;;11.60;70.90;;;;;;5054145;28;20106;-59
2023/12/31 03:48:45;;;;;;;;;;;;;;;;;;;;;
2023/12/31 03:51:24;;;;;;;1.80;1.40;;;11.60;70.80;;;;;;5049266;28;20041;-60
2023/12/31 03:54:08;;;;;;;;;;;;;;;;;;;;;
2023/12/31 03:56:51;;;;;;;1.42;1.00;;;11.60;71.10;;;;;;5028782;28;20507;-60
2023/12/31 03:59:36;;;;;;;4.05;1.30;;;11.60;71.10;;;;;;5046638;28;20029;-60
2023/12/31 04:02:13;;;;;;;1.55;1.45;;;11.60;71.20;;;;;;5035643;28;20041;-60
2023/12/31 04:04:58;;;;;;;3.55;1.30;;;11.60;71.30;;;;;;5029702;28;20508;-59
2023/12/31 04:07:40;;;;;;;2.53;1.15;;;11.60;71.40;;;;;;5051455;28;20135;-59
2023/12/31 04:10:12;;;;;;;3.75;1.70;;;11.60;71.50;;;;;;5035736;28;20515;-59
2023/12/31 04:13:13;;;;;;;1.48;1.17;;;11.50;71.60;;;;;;5035473;28;20497;-60
2023/12/31 04:15:48;;;;;;;2.20;1.67;;;11.50;71.60;;;;;;5030549;28;20049;-59
2023/12/31 04:18:27;;;;;;;2.25;1.45;;;11.50;71.70;;;;;;5041291;28;20037;-59
2023/12/31 04:21:14;;;;;;;2.95;1.50;;;11.50;71.80;;;;;;5033503;28;20043;-59
2023/12/31 04:24:06;;;;;;;3.50;1.77;;;11.50;71.90;;;;;;5046394;28;20052;-59
2023/12/31 04:26:48;;;;;;;2.75;1.85;;;11.50;72.00;;;;;;5052253;28;20041;-58
2023/12/31 04:32:25;;;;;;;2.35;1.80;;;11.50;72.20;;;;;;5046957;28;20090;-59
2023/12/31 04:35:16;;;;;;;2.03;1.73;;;11.50;72.20;;;;;;5033111;28;20048;-59
2023/12/31 04:38:16;;;;;;;4.40;1.90;;;11.50;72.30;;;;;;5048941;28;20072;-59
2023/12/31 04:41:01;;;;;;;2.20;2.00;;;11.50;72.40;;;;;;5044486;28;20052;-59
2023/12/31 04:44:04;;;;;;;2.70;2.30;;;11.50;72.40;;;;;;5052292;28;20037;-60
2023/12/31 04:49:44;;;;;;;3.88;2.20;;;11.50;72.50;;;;;;5022526;28;20060;-58
2023/12/31 04:52:20;;;;;;;2.45;2.25;;;11.50;72.60;;;;;;5044196;28;20047;-59
2023/12/31 04:55:11;;;;;;;2.63;2.42;;;11.50;72.70;;;;;;5050225;28;20102;-59
2023/12/31 04:57:49;;;;;;;2.70;2.17;;;11.40;72.60;;;;;;5030404;28;20049;-59
2023/12/31 05:00:45;;;;;;;3.10;2.35;;;11.40;72.80;;;;;;5026558;28;20037;-59
2023/12/31 05:03:38;;;;;;;2.60;2.13;;;11.40;72.80;;;;;;5032328;28;20041;-59
2023/12/31 05:06:40;;;;;;;2.70;2.47;;;11.40;72.90;;;;;;5042303;28;20048;-59
2023/12/31 05:09:24;;;;;;;2.65;2.28;;;11.40;72.80;;;;;;5049387;28;20044;-59
2023/12/31 05:12:18;;;;;;;2.55;2.30;;;11.40;72.80;;;;;;5048368;28;20057;-59
2023/12/31 05:14:54;;;;;;;3.17;2.22;;;11.40;72.80;;;;;;5048321;28;20052;-59
2023/12/31 05:17:40;;;;;;;2.70;2.17;;;11.40;72.90;;;;;;5045237;28;20563;-59
2023/12/31 05:20:21;;;;;;;2.15;1.95;;;11.40;72.90;;;;;;5050259;28;20060;-59
2023/12/31 05:23:00;;;;;;;3.78;2.15;;;11.40;73.00;;;;;;5044538;28;20131;-59
2023/12/31 05:25:42;;;;;;;2.92;2.38;;;11.30;72.90;;;;;;5052446;28;20059;-59
2023/12/31 05:28:20;;;;;;;2.83;2.53;;;11.30;72.90;;;;;;5069687;28;20525;-59
2023/12/31 05:31:12;;;;;;;3.42;2.10;;;11.30;72.90;;;;;;5038582;28;20473;-59
2023/12/31 05:34:16;;;;;;;4.28;2.45;;;11.30;72.90;;;;;;5058121;28;20082;-59
2023/12/31 05:36:59;;;;;;;3.35;2.22;;;11.30;72.80;;;;;;5064095;28;20041;-58
2023/12/31 05:39:46;;;;;;;3.43;2.40;;;11.30;72.90;;;;;;5059162;28;20042;-59
2023/12/31 05:42:28;;;;;;;2.50;2.28;;;11.30;72.90;;;;;;5045956;28;20072;-60
2023/12/31 05:45:37;;;;;;;3.25;2.20;;;11.40;72.90;;;;;;5054950;28;20094;-59
2023/12/31 05:48:22;;;;;;;2.40;2.20;;;11.40;73.00;;;;;;5068602;28;20071;-58
2023/12/31 05:51:18;;;;;;;3.10;2.25;;;11.40;73.00;;;;;;5052823;28;20051;-59
2023/12/31 05:53:55;;;;;;;3.45;2.45;;;11.40;73.00;;;;;;5044076;28;20045;-58
2023/12/31 05:56:47;;;;;;;3.30;2.40;;;11.40;73.00;;;;;;5062435;28;20056;-60
2023/12/31 06:00:05;;;;;;;2.47;2.28;;;11.40;73.00;;;;;;5043126;28;20388;-59
2023/12/31 06:02:38;;;;;;;2.13;1.92;;;11.60;73.00;;;;;;5058360;28;20506;-59
2023/12/31 06:05:19;;;;;;;2.78;2.58;;;11.50;72.90;;;;;;5067670;28;20075;-59
2023/12/31 06:08:01;;;;;;;4.00;2.45;;;11.50;72.90;;;;;;5051717;28;20059;-59
2023/12/31 06:10:42;;;;;;;2.60;2.03;;;11.50;72.80;;;;;;5060111;28;20510;-59
2023/12/31 06:13:20;;;;;;;3.22;2.25;;;11.50;72.80;;;;;;5053204;28;20071;-59
2023/12/31 06:15:57;;;;;;;2.63;2.40;;;11.50;73.10;;;;;;5066796;28;20048;-59
2023/12/31 06:18:27;;;;;;;3.85;2.58;;;11.60;72.80;;;;;;5046778;28;20090;-59
2023/12/31 06:21:09;;;;;;;2.70;2.50;;;11.60;72.80;;;;;;5064914;28;20124;-59
2023/12/31 06:23:50;;;;;;;2.33;2.13;;;11.60;72.80;;;;;;5051167;28;20110;-59
2023/12/31 06:26:42;;;;;;;2.65;2.45;;;11.60;72.70;;;;;;5055709;28;20048;-59
2023/12/31 06:30:08;;;;;;;3.35;2.70;;;11.70;72.60;;;;;;5064892;28;20040;-59
2023/12/31 06:32:35;;;;;;;4.78;2.42;;;11.70;72.40;;;;;;5044372;28;20052;-59
2023/12/31 06:35:40;;;;;;;3.42;2.60;;;11.70;72.50;;;;;;5053855;28;20052;-59
2023/12/31 06:38:12;;;;;;;2.78;2.42;;;11.70;72.40;;;;;;5059884;28;20053;-58
2023/12/31 06:40:50;;;;;;;2.92;2.28;;;11.60;72.40;;;;;;5039223;28;20044;-58
2023/12/31 06:43:39;;;;;;;3.20;2.47;;;11.70;72.40;;;;;;5047378;28;20052;-59
2023/12/31 06:46:17;;;;;;;2.95;2.67;;;11.70;72.40;;;;;;5065535;28;20154;-59
2023/12/31 06:48:53;;;;;;;2.67;2.45;;;11.70;72.50;;;;;;5055313;28;20438;-60
2023/12/31 06:51:27;;;;;;;2.80;2.35;;;11.60;72.40;;;;;;5044857;28;20202;-59
2023/12/31 06:54:03;;;;;;;3.35;2.75;;;11.60;72.40;;;;;;5046115;28;20550;-58
2023/12/31 06:56:44;;;;;;;3.63;2.88;;;11.60;72.40;;;;;;5062610;28;20051;-59
2023/12/31 06:59:37;;;;;;;3.20;2.90;;;11.60;72.40;;;;;;5056841;28;20044;-60
2023/12/31 07:02:21;;;;;;;5.63;4.93;;;11.60;72.40;;;;;;5058146;28;20047;-59
2023/12/31 07:05:04;;;;;;;5.45;4.13;;;11.60;72.50;;;;;;5065643;28;20047;-59
2023/12/31 07:07:50;;;;;;;4.28;3.85;;;11.60;72.60;;;;;;5051011;28;20037;-59
2023/12/31 07:10:53;;;;;;;4.85;3.53;;;11.60;72.70;;;;;;5053831;28;20134;-59
2023/12/31 07:13:30;;;;;;;5.00;3.85;;;11.60;72.60;;;;;;5054308;28;20382;-59
2023/12/31 07:16:07;;;;;;;5.90;3.67;;;11.60;72.60;;;;;;5059333;28;20505;-59
2023/12/31 07:18:45;;;;;;;4.45;3.15;;;11.60;72.70;;;;;;5048434;28;20106;-59
2023/12/31 07:21:47;;;;;;;5.22;3.60;;;11.60;72.80;;;;;;5067572;28;20053;-59
2023/12/31 07:24:36;;;;;;;6.88;4.82;;;11.60;72.90;;;;;;5034967;28;20043;-59
2023/12/31 07:27:22;;;;;;;6.88;5.22;;;11.60;73.10;;;;;;5067811;28;20507;-59
2023/12/31 07:30:20;;;;;;;5.75;4.07;;;11.60;73.10;;;;;;5066951;28;20094;-59
2023/12/31 07:32:53;;;;;;;5.38;4.80;;;11.60;73.10;;;;;;5053363;28;20068;-59
2023/12/31 07:35:35;;;;;;;7.03;5.53;;;11.60;73.20;;;;;;5056665;28;20132;-59
2023/12/31 07:38:27;;;;;;;6.75;5.28;;;11.50;73.20;;;;;;5061338;28;20568;-60
2023/12/31 07:40:59;;;;;;;5.47;4.22;;;11.50;73.20;;;;;;5054308;28;20041;-59
2023/12/31 07:43:42;;;;;;;5.07;4.28;;;11.50;73.20;;;;;;5060471;28;20071;-59
2023/12/31 07:46:58;;;;;;;4.50;3.70;;;11.50;73.20;;;;;;5059960;28;20058;-59
2023/12/31 07:49:48;;;;;;;4.65;3.10;;;11.50;73.30;;;;;;5050853;28;20056;-59
2023/12/31 07:52:30;;;;;;;4.05;2.53;;;11.50;73.50;;;;;;5055757;28;20055;-59
2023/12/31 07:55:15;;;;;;;2.38;2.17;;;11.60;73.60;;;;;;5055444;28;20098;-59
2023/12/31 07:58:19;;;;;;;3.00;2.70;;;11.60;73.70;;;;;;5060210;28;20111;-59
2023/12/31 08:01:02;;;;;;;2.92;2.50;;;11.60;73.50;;;;;;5059018;28;20135;-59
2023/12/31 08:03:53;;;;;;;3.20;2.90;;;11.70;73.60;;;;;;5033181;28;20114;-60
2023/12/31 08:07:03;;;;;;;3.08;2.30;;;11.80;73.40;;;;;;5068136;28;20106;-60
2023/12/31 08:10:11;;;;;;;2.38;2.17;;;11.90;73.30;;;;;;5054986;28;20130;-59
2023/12/31 08:12:56;;;;;;;2.85;2.58;;;12.00;72.90;;;;;;5062597;28;20422;-59
2023/12/31 08:15:43;;;;;;;3.17;2.78;;;12.00;72.80;;;;;;5059690;28;20051;-59
2023/12/31 08:18:28;;;;;;;2.88;2.35;;;12.20;72.60;;;;;;5053559;28;20045;-59
2023/12/31 08:21:07;;;;;;;2.50;2.30;;;12.20;72.50;;;;;;5061675;28;20047;-60
2023/12/31 08:24:18;;;;;;;3.80;2.75;;;12.30;72.20;;;;;;5044574;28;20072;-59
2023/12/31 08:27:03;;;;;;;2.42;2.20;;;12.40;72.00;;;;;;5060945;28;20044;-59
2023/12/31 08:29:34;;;;;;;3.88;2.28;;;12.40;71.80;;;;;;5061099;28;20044;-59
2023/12/31 08:32:09;;;;;;;2.97;2.20;;;12.50;71.50;;;;;;5054858;28;20103;-59
2023/12/31 08:34:53;;;;;;;2.35;2.15;;;12.50;71.40;;;;;;5059261;28;20136;-59
2023/12/31 08:37:32;;;;;;;2.40;2.20;;;12.60;71.30;;;;;;5060204;28;20453;-60
2023/12/31 08:40:41;;;;;;;;;;;;;;;;;;;;;
2023/12/31 08:43:14;;;;;;;1.92;1.80;;;12.70;71.00;;;;;;5050873;28;20124;-59
2023/12/31 08:45:53;;;;;;;2.83;2.30;;;12.70;70.80;;;;;;5065710;28;20059;-60
2023/12/31 08:48:31;;;;;;;2.47;2.28;;;12.80;70.60;;;;;;5065097;28;20076;-59
2023/12/31 08:51:19;;;;;;;2.92;2.63;;;12.80;70.60;;;;;;5050080;28;20171;-59
2023/12/31 08:54:06;;;;;;;2.38;2.17;;;12.90;70.60;;;;;;5046173;28;20048;-59
2023/12/31 08:56:40;;;;;;;2.70;2.15;;;12.90;70.30;;;;;;5060865;28;20394;-60
2023/12/31 08:59:24;;;;;;;2.80;2.33;;;13.00;70.20;;;;;;5049931;28;20047;-59
2023/12/31 09:02:21;;;;;;;2.75;2.20;;;13.00;69.90;;;;;;5060914;28;20126;-60
2023/12/31 09:05:05;;;;;;;2.65;2.22;;;13.10;69.70;;;;;;5061221;28;20516;-60
2023/12/31 09:08:04;;;;;;;2.50;2.28;;;13.10;69.80;;;;;;5050270;28;20057;-59
2023/12/31 09:10:50;;;;;;;2.60;2.17;;;13.20;69.80;;;;;;5059697;28;20037;-59
2023/12/31 09:13:30;;;;;;;2.45;2.25;;;13.20;69.40;;;;;;5064118;28;20471;-58
2023/12/31 09:16:15;;;;;;;2.78;2.08;;;13.20;69.50;;;;;;5062001;28;20102;-59
2023/12/31 09:19:00;;;;;;;2.80;1.70;;;13.30;69.00;;;;;;5058782;28;20457;-59
2023/12/31 09:21:55;;;;;;;2.03;1.83;;;13.40;69.10;;;;;;5063370;28;20050;-59
2023/12/31 09:24:34;;;;;;;1.55;1.45;;;13.40;68.10;;;;;;5047844;28;20059;-59
2023/12/31 09:27:20;;;;;;;2.15;1.40;;;13.50;68.40;;;;;;5058154;28;20110;-60
2023/12/31 09:30:04;;;;;;;1.42;1.10;;;13.50;67.90;;;;;;5063205;28;20487;-59
2023/12/31 09:32:58;;;;;;;1.25;1.10;;;13.60;67.40;;;;;;5046513;28;20052;-59
2023/12/31 09:35:49;;;;;;;1.10;1.00;;;13.60;67.20;;;;;;5060743;28;20061;-59
2023/12/31 09:38:40;;;;;;;;;;;;;;;;;;;;;
2023/12/31 09:41:29;;;;;;;1.13;0.82;;;13.60;67.80;;;;;;5049106;28;20057;-57
2023/12/31 09:44:18;;;;;;;2.05;1.00;;;13.60;67.30;;;;;;5057718;28;20041;-59
2023/12/31 09:47:18;;;;;;;2.88;1.30;;;13.60;66.80;;;;;;5043275;28;20119;-59
2023/12/31 09:53:11;;;;;;;1.85;0.82;;;13.60;67.20;;;;;;5044412;28;20114;-58
2023/12/31 09:55:56;;;;;;;0.73;0.73;;;13.60;67.20;;;;;;5047821;28;20524;-60
2023/12/31 09:58:51;;;;;;;;;;;;;;;;;;;;;
2023/12/31 10:01:45;;;;;;;2.55;0.98;;;13.60;67.10;;;;;;5058362;28;20107;-59
2023/12/31 10:04:29;;;;;;;0.50;0.47;;;13.60;66.90;;;;;;5060814;28;20052;-59
2023/12/31 10:07:12;;;;;;;0.77;0.68;;;13.60;66.80;;;;;;5053532;28;20045;-59
2023/12/31 10:10:12;;;;;;;0.73;0.55;;;13.50;66.20;;;;;;5048679;28;20102;-60
2023/12/31 10:12:53;;;;;;;2.80;0.70;;;13.60;66.40;;;;;;5054833;28;20159;-59
2023/12/31 10:15:51;;;;;;;1.50;0.70;;;13.50;66.80;;;;;;5053063;28;20406;-60
2023/12/31 10:18:28;;;;;;;0.93;0.68;;;13.50;66.70;;;;;;5048290;28;20103;-59
2023/12/31 10:21:25;;;;;;;1.98;1.08;;;13.50;66.70;;;;;;5058275;28;20045;-59
2023/12/31 10:24:08;;;;;;;0.98;0.68;;;13.40;66.60;;;;;;5048974;28;20529;-59
2023/12/31 10:26:48;;;;;;;3.17;1.00;;;13.40;66.70;;;;;;5055486;28;20102;-59
2023/12/31 10:29:48;;;;;;;1.55;0.50;;;13.40;66.80;;;;;;5059892;28;20191;-59
2023/12/31 10:32:32;;;;;;;1.77;0.93;;;13.40;66.90;;;;;;5046400;28;20041;-59
2023/12/31 10:35:23;;;;;;;1.35;0.82;;;13.40;66.80;;;;;;5057933;28;20106;-59
2023/12/31 10:38:09;;;;;;;2.22;0.63;;;13.40;66.10;;;;;;5057780;28;20521;-59
2023/12/31 10:41:24;;;;;;;1.10;1.00;;;13.40;66.40;;;;;;5041518;28;20045;-59
2023/12/31 10:43:52;;;;;;;2.33;1.25;;;13.40;65.80;;;;;;5055151;28;20036;-58
2023/12/31 10:46:35;;;;;;;1.13;0.60;;;13.40;66.60;;;;;;5058598;28;20052;-59
2023/12/31 10:49:36;;;;;;;0.90;0.50;;;13.40;66.60;;;;;;5048631;28;20410;-59
2023/12/31 10:52:49;;;;;;;2.70;0.68;;;13.40;66.20;;;;;;5045171;28;20064;-59
2023/12/31 10:55:37;;;;;;;0.55;0.40;;;13.40;66.00;;;;;;5044093;28;20047;-59
2023/12/31 10:58:16;;;;;;;1.00;0.40;;;13.30;66.00;;;;;;5055384;28;20556;-59
2023/12/31 11:00:52;;;;;;;3.05;0.40;;;13.30;66.50;;;;;;5055551;28;20051;-60
2023/12/31 11:03:35;;;;;;;1.23;0.60;;;13.30;66.50;;;;;;5059984;28;20071;-59
2023/12/31 11:06:15;;;;;;;1.42;0.50;;;13.30;66.40;;;;;;5061672;28;20480;-58
2023/12/31 11:08:49;;;;;;;1.45;0.50;;;13.30;66.50;;;;;;5051436;28;20051;-59
2023/12/31 11:11:37;;;;;;;1.15;0.70;;;13.20;66.60;;;;;;5059937;28;20040;-59
2023/12/31 11:14:34;;;;;;;1.38;0.52;;;13.20;66.80;;;;;;5044369;28;20080;-58
2023/12/31 11:17:46;;;;;;;2.42;0.60;;;13.20;66.60;;;;;;5054573;28;20095;-60
2023/12/31 11:20:43;;;;;;;1.30;0.50;;;13.20;66.70;;;;;;5056055;28;20044;-60
2023/12/31 11:23:38;;;;;;;0.65;0.57;;;13.30;66.20;;;;;;5049044;28;20704;-59
2023/12/31 11:26:20;;;;;;;1.10;0.40;;;13.20;66.50;;;;;;5060293;28;20542;-60
2023/12/31 11:29:11;;;;;;;1.27;0.50;;;13.20;66.40;;;;;;5059510;28;20064;-59
2023/12/31 11:31:46;;;;;;;0.85;0.50;;;13.20;66.60;;;;;;5056227;28;20090;-58
2023/12/31 11:34:40;;;;;;;0.52;0.30;;;13.20;66.50;;;;;;5058673;28;20057;-59
2023/12/31 11:37:31;;;;;;;0.57;0.57;;;13.20;66.10;;;;;;5057076;28;20044;-59
2023/12/31 11:40:13;;;;;;;0.47;0.45;;;13.20;66.50;;;;;;5054151;28;20039;-59
2023/12/31 11:42:53;;;;;;;1.38;0.38;;;13.20;66.40;;;;;;5055924;28;20043;-58
2023/12/31 11:45:53;;;;;;;0.52;0.35;;;13.20;66.50;;;;;;5060322;28;20043;-59
2023/12/31 11:48:35;;;;;;;2.90;0.75;;;13.20;66.00;;;;;;5051163;28;20041;-59
2023/12/31 11:51:19;;;;;;;2.40;0.55;;;13.20;66.50;;;;;;5051686;28;20098;-59
2023/12/31 11:53:55;;;;;;;2.30;0.55;;;13.20;66.30;;;;;;5053016;28;20106;-59
2023/12/31 11:56:42;;;;;;;0.88;0.43;;;13.20;66.30;;;;;;5060065;28;20035;-59
2023/12/31 11:59:19;;;;;;;0.93;0.30;;;13.20;66.20;;;;;;5044872;28;20029;-60
2023/12/31 12:02:15;;;;;;;0.75;0.50;;;13.20;66.20;;;;;;5056327;28;20053;-59
2023/12/31 12:04:50;;;;;;;1.77;0.52;;;13.20;66.00;;;;;;5059037;28;20468;-59
2023/12/31 12:07:39;;;;;;;1.48;0.45;;;13.20;65.80;;;;;;5050725;28;20095;-59
2023/12/31 12:10:20;;;;;;;;;;;13.20;65.90;;;;;;5063267;28;20128;-59
2023/12/31 12:13:01;;;;;;;1.00;0.40;;;13.30;66.10;;;;;;5060323;28;20414;-59
2023/12/31 12:15:45;;;;;;;0.65;0.47;;;13.30;65.80;;;;;;5052290;28;20125;-60
2023/12/31 12:18:22;;;;;;;1.40;0.55;;;13.30;65.70;;;;;;5053020;28;20053;-60
2023/12/31 12:21:10;;;;;;;2.85;0.22;;;13.30;65.70;;;;;;5056888;28;20059;-59
2023/12/31 12:24:06;;;;;;;0.55;0.30;;;13.30;65.40;;;;;;5046012;28;20048;-59
2023/12/31 12:26:47;;;;;;;1.58;0.55;;;13.30;65.20;;;;;;5059208;28;20094;-59
2023/12/31 12:29:29;;;;;;;2.03;0.47;;;13.30;65.10;;;;;;5053802;28;20044;-59
2023/12/31 12:32:07;;;;;;;0.68;0.32;;;13.20;64.90;;;;;;5053706;28;20071;-60
2023/12/31 12:34:43;;;;;;;3.28;0.70;;;13.20;65.60;;;;;;5054145;28;20099;-60
2023/12/31 12:37:32;;;;;;;2.05;1.05;;;13.10;66.50;;;;;;5053109;28;20060;-60
2023/12/31 12:40:19;;;;;;;1.88;0.88;;;13.00;67.10;;;;;;5048560;28;20569;-60
2023/12/31 12:43:05;;;;;;;;;;;;;;;;;;;;;
2023/12/31 12:46:10;;;;;;;;;;;;;;;;;;;;;
2023/12/31 12:49:17;;;;;;;2.25;1.65;;;12.70;66.60;;;;;;5047718;28;20055;-60
2023/12/31 12:51:50;;;;;;;;;;;12.60;66.70;;;;;;5049681;28;20533;-59
2023/12/31 12:54:44;;;;;;;;;;;;;;;;;;;;;
2023/12/31 12:57:31;;;;;;;2.92;0.88;;;12.40;66.90;;;;;;5049313;28;20114;-60
2023/12/31 13:00:10;;;;;;;2.08;0.82;;;12.30;67.10;;;;;;5050382;28;20128;-60
2023/12/31 13:03:15;;;;;;;1.23;0.68;;;12.20;67.50;;;;;;5055780;28;20035;-60
2023/12/31 13:06:25;;;;;;;2.25;1.08;;;12.00;67.80;;;;;;5053278;28;20087;-60
2023/12/31 13:09:08;;;;;;;1.30;0.52;;;11.90;69.70;;;;;;5052324;28;20043;-60
2023/12/31 13:12:03;;;;;;;2.15;1.13;;;11.70;69.20;;;;;;5056187;28;20071;-60
2023/12/31 13:14:37;;;;;;;3.58;1.10;;;11.60;69.40;;;;;;5051708;28;20049;-60
2023/12/31 13:17:14;;;;;;;2.75;1.23;;;11.50;69.80;;;;;;5051313;28;20835;-60
2023/12/31 13:20:11;;;;;;;5.70;2.10;;;11.40;70.30;;;;;;5047302;28;20091;-60
2023/12/31 13:22:54;;;;;;;4.53;2.03;;;11.40;70.70;;;;;;5045370;28;20125;-60
2023/12/31 13:25:32;;;;;;;3.45;1.85;;;11.40;71.10;;;;;;5051178;28;20039;-59
2023/12/31 13:28:11;;;;;;;3.90;1.50;;;11.40;71.90;;;;;;5055814;28;20556;-60
2023/12/31 13:30:49;;;;;;;5.15;1.73;;;11.40;72.00;;;;;;5051928;28;20103;-60
2023/12/31 13:33:33;;;;;;;6.72;3.72;;;11.40;72.30;;;;;;5052821;28;20098;-60
2023/12/31 13:36:04;;;;;;;2.60;1.67;;;11.50;72.20;;;;;;5054486;28;20048;-60
2023/12/31 13:39:04;;;;;;;3.00;1.23;;;11.50;72.00;;;;;;5049504;28;20037;-59
2023/12/31 13:41:44;;;;;;;3.75;1.40;;;11.60;71.80;;;;;;5054051;28;20045;-60
2023/12/31 13:44:19;;;;;;;1.85;0.77;;;11.60;71.40;;;;;;5047595;28;20041;-59
2023/12/31 13:47:01;;;;;;;2.25;0.85;;;11.60;71.00;;;;;;5051399;28;20072;-59
2023/12/31 13:49:42;;;;;;;5.50;1.27;;;11.60;70.80;;;;;;5047705;28;20048;-59
2023/12/31 13:52:33;;;;;;;;;;;;;;;;;;;;;
2023/12/31 13:55:29;;;;;;;2.63;0.88;;;11.60;70.80;;;;;;5047954;28;20039;-58
2023/12/31 13:58:13;;;;;;;3.38;1.25;;;11.70;70.80;;;;;;5049586;28;20075;-59
2023/12/31 14:01:04;;;;;;;5.38;0.90;;;11.70;70.50;;;;;;5045000;28;20642;-59
2023/12/31 14:03:40;;;;;;;1.35;1.02;;;11.80;70.40;;;;;;5053499;28;20143;-59
2023/12/31 14:06:12;;;;;;;3.35;1.50;;;11.80;70.30;;;;;;5048177;28;20043;-58
2023/12/31 14:08:46;;;;;;;3.47;1.30;;;11.90;70.10;;;;;;5046413;28;20087;-59
2023/12/31 14:11:28;;;;;;;3.13;1.17;;;11.90;70.10;;;;;;5046990;28;20464;-60
2023/12/31 14:14:25;;;;;;;4.72;1.17;;;11.90;69.80;;;;;;5048267;28;20045;-60
2023/12/31 14:17:07;;;;;;;4.32;1.10;;;11.90;70.00;;;;;;5051791;28;20051;-60
2023/12/31 14:20:14;;;;;;;3.13;1.27;;;12.00;69.60;;;;;;5053222;28;20048;-58
2023/12/31 14:22:55;;;;;;;2.38;1.23;;;12.00;69.70;;;;;;5034257;28;20049;-59
2023/12/31 14:25:43;;;;;;;5.22;1.10;;;12.00;69.40;;;;;;5051612;28;20040;-59
2023/12/31 14:28:29;;;;;;;3.20;1.05;;;12.00;69.20;;;;;;5047309;28;20606;-59
2023/12/31 14:31:37;;;;;;;3.67;1.60;;;12.10;69.40;;;;;;5052866;28;20053;-59
2023/12/31 14:34:08;;;;;;;2.63;1.25;;;12.10;69.30;;;;;;5055506;28;20783;-60
2023/12/31 14:37:12;;;;;;;5.10;1.60;;;12.10;68.90;;;;;;5057290;28;20132;-59
2023/12/31 14:39:51;;;;;;;4.15;3.13;;;12.10;68.70;;;;;;5048700;28;20041;-59
2023/12/31 14:42:23;;;;;;;9.80;2.55;;;12.10;68.60;;;;;;5049289;28;20114;-59